Pensacola, FL

4:02 AM CDT on April 28, 2017 (GMT -0500)
Pensacola Naval Air Station | | Change Station
Active Advisory: Coastal Hazard Statement Active Notice: Coastal Hazard Statement

Elev 30 ft 30.35 °N, 87.32 °W | Updated 6 minutes ago

Overcast
Overcast
76 °F
Feels Like 76 °F
N
14
Wind Variable Wind from SSE

Today
High -- | Low -- °F
--% Chance of Precip.
Yesterday
High -- | Low -- °F
Precip. -- in
Pressure 29.86 in
Visibility 10.0 miles
Clouds Overcast 600 ft
Dew Point 73 °F
Humidity 91%
Rainfall 0.00 in
Snow Depth Not available.
6:08 AM 7:25 PM
Waxing Crescent, 5% visible
METAR KNPA 280856Z AUTO 16012KT 10SM OVC006 24/23 A2986 RMK AO2 SLP112 T02440228 55001 $
Pressure 29.86 in
Visibility 10.0 miles
Clouds Overcast 600 ft
Dew Point 73 °F
Humidity 91%
Rainfall 0.00 in
Snow Depth Not available.
6:08 AM 7:25 PM
Waxing Crescent, 5% visible
METAR KNPA 280856Z AUTO 16012KT 10SM OVC006 24/23 A2986 RMK AO2 SLP112 T02440228 55001 $

Get Your Daily Forecast Email!

Thanks for signing up!

Be on the lookout for a verification email in your inbox.

You'll start receiving severe weather alerts in your inbox..

×

10-Day Weather Forecast

Almanac

Astronomy

Apr. 28, 2017 Rise Set
Actual Time
Civil Twilight
Nautical Twilight
Astronomical Twilight
Moon
Length of Visible Light
Length of Day
Tomorrow will be .
, % of the Moon is Illuminated

Today's Extremes

State Highs State Lows

Community

WunderPhotos

WunderBlog® & News

Nearby

Air Quality

  Air Quality AQ Index Pollutant
Not available.

Snow Depth

Station Depth Elevation

Earthquake Activity

City Distance Mag. Time & Date
Minimum magnitude displayed is 2.5.

Coastal Water Temperatures

Place Temperature

Stations

Nearby Weather Stations

Station Location Temp. Windchill Dew Point Humidity Wind Precip. Elev Updated Type
                   

Watches & Warnings

Coastal Hazard Statement
Issued: 10:44 PM CDT Apr. 27, 2017 – National Weather Service

... High rip current risk remains in effect through Saturday
morning...

* impacts... frequent life-threatening rip currents are expected.
The surf is dangerous for all levels of swimmers.

Precautionary/preparedness actions...

There is a high risk of rip currents. Rip currents are life-
threatening to anyone entering the surf. Swim near a lifeguard.
If caught in a rip current remain calm. Don't fight the current.
Swim in a direction following the shoreline. If unable to escape,
face the shore and call or wave for help. If tired, float or
tread water until out of the rip current.